Terminal Aerodrome Forecast
Issued by NWS

Home | Current Version | Previous Version | Text Only | Print | Product List | Glossary On
Versions: 1 2 3 4 5 6 7 8 9 10 11 12 13 14 15 16 17 18 19
089
FTUS46 KMTR 202320
TAFOAK
TAF
KOAK 202320Z 2100/2206 28018KT P6SM FEW015 SCT150
     FM210400 28008KT P6SM FEW150
     FM210900 VRB03KT P6SM SKC
     FM212100 27008KT P6SM FEW020 SCT050
     FM220100 27014KT P6SM FEW050=

USA.gov is the U.S. government's official web portal to all federal, state and local government web resources and services.